sensor_id;sensor_type;location;lat;lon;timestamp;temperature;humidity
13944;DHT22;7044;53.286;8.534;2023-03-14T00:01:59;10.10;48.90
13944;DHT22;7044;53.286;8.534;2023-03-14T00:04:27;10.10;49.20
13944;DHT22;7044;53.286;8.534;2023-03-14T00:06:53;10.10;49.20
13944;DHT22;7044;53.286;8.534;2023-03-14T00:09:20;10.20;50.90
13944;DHT22;7044;53.286;8.534;2023-03-14T00:11:47;10.20;49.40
13944;DHT22;7044;53.286;8.534;2023-03-14T00:14:14;10.20;49.00
13944;DHT22;7044;53.286;8.534;2023-03-14T00:16:42;10.20;49.20
13944;DHT22;7044;53.286;8.534;2023-03-14T00:19:12;10.20;49.60
13944;DHT22;7044;53.286;8.534;2023-03-14T00:21:40;10.20;50.70
13944;DHT22;7044;53.286;8.534;2023-03-14T00:24:07;10.20;51.40
13944;DHT22;7044;53.286;8.534;2023-03-14T00:26:34;10.20;52.50
13944;DHT22;7044;53.286;8.534;2023-03-14T00:29:01;10.20;53.10
13944;DHT22;7044;53.286;8.534;2023-03-14T00:31:28;10.20;53.50
13944;DHT22;7044;53.286;8.534;2023-03-14T00:33:55;10.20;54.60
13944;DHT22;7044;53.286;8.534;2023-03-14T00:36:22;10.20;54.40
13944;DHT22;7044;53.286;8.534;2023-03-14T00:38:51;10.20;53.70
13944;DHT22;7044;53.286;8.534;2023-03-14T00:41:20;10.20;53.60
13944;DHT22;7044;53.286;8.534;2023-03-14T00:43:48;10.30;53.80
13944;DHT22;7044;53.286;8.534;2023-03-14T00:46:15;10.20;54.20
13944;DHT22;7044;53.286;8.534;2023-03-14T00:48:42;10.20;55.00
13944;DHT22;7044;53.286;8.534;2023-03-14T00:51:10;10.20;56.10
13944;DHT22;7044;53.286;8.534;2023-03-14T00:53:40;10.20;57.40
13944;DHT22;7044;53.286;8.534;2023-03-14T00:56:11;10.20;58.20
13944;DHT22;7044;53.286;8.534;2023-03-14T00:58:39;10.20;58.30
13944;DHT22;7044;53.286;8.534;2023-03-14T01:01:07;10.20;59.00
13944;DHT22;7044;53.286;8.534;2023-03-14T01:03:35;10.20;59.50
13944;DHT22;7044;53.286;8.534;2023-03-14T01:06:09;10.20;60.00
13944;DHT22;7044;53.286;8.534;2023-03-14T01:08:37;10.20;61.50
13944;DHT22;7044;53.286;8.534;2023-03-14T01:11:10;10.20;63.30
13944;DHT22;7044;53.286;8.534;2023-03-14T01:13:37;10.20;65.60
13944;DHT22;7044;53.286;8.534;2023-03-14T01:16:07;10.30;67.60
13944;DHT22;7044;53.286;8.534;2023-03-14T01:18:35;10.30;71.30
13944;DHT22;7044;53.286;8.534;2023-03-14T01:21:02;10.30;74.00
13944;DHT22;7044;53.286;8.534;2023-03-14T01:23:29;10.30;77.70
13944;DHT22;7044;53.286;8.534;2023-03-14T01:25:55;10.30;78.50
13944;DHT22;7044;53.286;8.534;2023-03-14T01:28:23;10.40;80.50
13944;DHT22;7044;53.286;8.534;2023-03-14T01:30:50;10.40;82.00
13944;DHT22;7044;53.286;8.534;2023-03-14T01:33:17;10.30;84.00
13944;DHT22;7044;53.286;8.534;2023-03-14T01:35:44;10.40;84.20
13944;DHT22;7044;53.286;8.534;2023-03-14T01:38:11;10.40;85.70
13944;DHT22;7044;53.286;8.534;2023-03-14T01:40:42;10.40;87.40
13944;DHT22;7044;53.286;8.534;2023-03-14T01:43:14;10.40;89.80
13944;DHT22;7044;53.286;8.534;2023-03-14T01:46:21;10.40;90.20
13944;DHT22;7044;53.286;8.534;2023-03-14T01:48:56;10.40;91.10
13944;DHT22;7044;53.286;8.534;2023-03-14T01:51:28;10.40;91.30
13944;DHT22;7044;53.286;8.534;2023-03-14T01:54:02;10.40;92.10
13944;DHT22;7044;53.286;8.534;2023-03-14T01:56:30;10.40;93.10
13944;DHT22;7044;53.286;8.534;2023-03-14T01:58:58;10.50;93.60
13944;DHT22;7044;53.286;8.534;2023-03-14T02:01:28;10.50;93.70
13944;DHT22;7044;53.286;8.534;2023-03-14T02:03:59;10.50;94.10
13944;DHT22;7044;53.286;8.534;2023-03-14T02:06:32;10.60;94.80
13944;DHT22;7044;53.286;8.534;2023-03-14T02:09:01;10.50;94.90
13944;DHT22;7044;53.286;8.534;2023-03-14T02:11:30;10.60;95.50
13944;DHT22;7044;53.286;8.534;2023-03-14T02:13:58;10.50;95.40
13944;DHT22;7044;53.286;8.534;2023-03-14T02:16:26;10.50;96.00
13944;DHT22;7044;53.286;8.534;2023-03-14T02:18:53;10.60;96.20
13944;DHT22;7044;53.286;8.534;2023-03-14T02:21:24;10.60;96.30
13944;DHT22;7044;53.286;8.534;2023-03-14T02:23:58;10.60;96.70
13944;DHT22;7044;53.286;8.534;2023-03-14T02:26:35;10.60;97.00
13944;DHT22;7044;53.286;8.534;2023-03-14T02:29:05;10.60;96.60
13944;DHT22;7044;53.286;8.534;2023-03-14T02:31:32;10.60;96.80
13944;DHT22;7044;53.286;8.534;2023-03-14T02:34:00;10.60;97.00
13944;DHT22;7044;53.286;8.534;2023-03-14T02:36:27;10.70;97.10
13944;DHT22;7044;53.286;8.534;2023-03-14T02:39:01;10.70;96.80
13944;DHT22;7044;53.286;8.534;2023-03-14T02:41:30;10.70;96.50
13944;DHT22;7044;53.286;8.534;2023-03-14T02:43:57;10.70;95.80
13944;DHT22;7044;53.286;8.534;2023-03-14T02:46:26;10.80;95.80
13944;DHT22;7044;53.286;8.534;2023-03-14T02:48:54;10.80;96.10
13944;DHT22;7044;53.286;8.534;2023-03-14T02:51:24;10.80;95.70
13944;DHT22;7044;53.286;8.534;2023-03-14T02:53:52;10.80;95.80
13944;DHT22;7044;53.286;8.534;2023-03-14T02:56:18;10.80;95.50
13944;DHT22;7044;53.286;8.534;2023-03-14T02:58:45;10.80;95.00
13944;DHT22;7044;53.286;8.534;2023-03-14T03:01:12;10.80;95.60
13944;DHT22;7044;53.286;8.534;2023-03-14T03:03:41;10.80;98.30
13944;DHT22;7044;53.286;8.534;2023-03-14T03:06:08;10.80;99.90
13944;DHT22;7044;53.286;8.534;2023-03-14T03:08:34;10.70;99.90
13944;DHT22;7044;53.286;8.534;2023-03-14T03:11:01;10.50;97.70
13944;DHT22;7044;53.286;8.534;2023-03-14T03:13:28;10.40;95.10
13944;DHT22;7044;53.286;8.534;2023-03-14T03:15:55;10.20;94.70
13944;DHT22;7044;53.286;8.534;2023-03-14T03:18:22;10.10;97.60
13944;DHT22;7044;53.286;8.534;2023-03-14T03:20:50;10.00;99.90
13944;DHT22;7044;53.286;8.534;2023-03-14T03:23:17;9.80;99.90
13944;DHT22;7044;53.286;8.534;2023-03-14T03:25:48;9.80;99.50
13944;DHT22;7044;53.286;8.534;2023-03-14T03:28:15;9.70;99.90
13944;DHT22;7044;53.286;8.534;2023-03-14T03:30:42;9.70;99.90
13944;DHT22;7044;53.286;8.534;2023-03-14T03:33:09;9.70;99.90
13944;DHT22;7044;53.286;8.534;2023-03-14T03:35:42;9.60;99.90
13944;DHT22;7044;53.286;8.534;2023-03-14T03:38:10;9.60;99.90
13944;DHT22;7044;53.286;8.534;2023-03-14T03:40:38;9.60;99.90
13944;DHT22;7044;53.286;8.534;2023-03-14T03:43:05;9.60;99.90
13944;DHT22;7044;53.286;8.534;2023-03-14T03:45:31;9.60;99.90
13944;DHT22;7044;53.286;8.534;2023-03-14T03:47:58;9.60;99.90
13944;DHT22;7044;53.286;8.534;2023-03-14T03:50:25;9.60;99.90
13944;DHT22;7044;53.286;8.534;2023-03-14T03:52:52;9.60;99.90
13944;DHT22;7044;53.286;8.534;2023-03-14T03:55:20;9.60;99.90
13944;DHT22;7044;53.286;8.534;2023-03-14T03:57:47;9.60;99.90
13944;DHT22;7044;53.286;8.534;2023-03-14T04:00:14;9.50;99.90
13944;DHT22;7044;53.286;8.534;2023-03-14T04:02:40;9.60;99.90
13944;DHT22;7044;53.286;8.534;2023-03-14T04:05:08;9.60;99.90
13944;DHT22;7044;53.286;8.534;2023-03-14T04:07:35;9.50;99.90
13944;DHT22;7044;53.286;8.534;2023-03-14T04:10:02;9.60;99.90
13944;DHT22;7044;53.286;8.534;2023-03-14T04:12:30;9.60;99.90
13944;DHT22;7044;53.286;8.534;2023-03-14T04:14:57;9.50;99.90
13944;DHT22;7044;53.286;8.534;2023-03-14T04:17:24;9.50;99.90
13944;DHT22;7044;53.286;8.534;2023-03-14T04:19:51;9.50;99.90
13944;DHT22;7044;53.286;8.534;2023-03-14T04:22:19;9.50;99.90
13944;DHT22;7044;53.286;8.534;2023-03-14T04:24:46;9.40;99.90
13944;DHT22;7044;53.286;8.534;2023-03-14T04:27:12;9.40;99.90
13944;DHT22;7044;53.286;8.534;2023-03-14T04:29:42;9.40;99.90
13944;DHT22;7044;53.286;8.534;2023-03-14T04:32:08;9.40;99.90
13944;DHT22;7044;53.286;8.534;2023-03-14T04:34:35;9.40;99.90
13944;DHT22;7044;53.286;8.534;2023-03-14T04:37:02;9.40;99.90
13944;DHT22;7044;53.286;8.534;2023-03-14T04:39:29;9.40;99.90
13944;DHT22;7044;53.286;8.534;2023-03-14T04:41:56;9.50;99.90
13944;DHT22;7044;53.286;8.534;2023-03-14T04:44:23;9.50;99.90
13944;DHT22;7044;53.286;8.534;2023-03-14T04:46:51;9.50;99.90
13944;DHT22;7044;53.286;8.534;2023-03-14T04:49:17;9.50;99.90
13944;DHT22;7044;53.286;8.534;2023-03-14T04:51:44;9.50;99.90
13944;DHT22;7044;53.286;8.534;2023-03-14T04:54:11;9.60;99.90
13944;DHT22;7044;53.286;8.534;2023-03-14T04:56:38;9.60;99.90
13944;DHT22;7044;53.286;8.534;2023-03-14T04:59:05;9.60;99.90
13944;DHT22;7044;53.286;8.534;2023-03-14T05:01:31;9.60;99.90
13944;DHT22;7044;53.286;8.534;2023-03-14T05:04:00;9.60;99.90
13944;DHT22;7044;53.286;8.534;2023-03-14T05:06:26;9.70;99.90
13944;DHT22;7044;53.286;8.534;2023-03-14T05:08:53;9.90;99.90
13944;DHT22;7044;53.286;8.534;2023-03-14T05:11:20;9.70;99.90
13944;DHT22;7044;53.286;8.534;2023-03-14T05:13:47;9.60;99.90
13944;DHT22;7044;53.286;8.534;2023-03-14T05:16:13;9.70;99.90
13944;DHT22;7044;53.286;8.534;2023-03-14T05:18:40;9.60;99.90
13944;DHT22;7044;53.286;8.534;2023-03-14T05:21:08;9.60;99.90
13944;DHT22;7044;53.286;8.534;2023-03-14T05:23:35;9.60;99.90
13944;DHT22;7044;53.286;8.534;2023-03-14T05:26:02;9.60;99.90
13944;DHT22;7044;53.286;8.534;2023-03-14T05:28:29;9.60;99.90
13944;DHT22;7044;53.286;8.534;2023-03-14T05:30:56;9.60;99.90
13944;DHT22;7044;53.286;8.534;2023-03-14T05:33:22;9.60;99.90
13944;DHT22;7044;53.286;8.534;2023-03-14T05:35:49;9.60;99.90
13944;DHT22;7044;53.286;8.534;2023-03-14T05:38:17;9.60;99.90
13944;DHT22;7044;53.286;8.534;2023-03-14T05:40:45;9.60;99.90
13944;DHT22;7044;53.286;8.534;2023-03-14T05:43:12;9.60;99.90
13944;DHT22;7044;53.286;8.534;2023-03-14T05:45:39;9.60;99.90
13944;DHT22;7044;53.286;8.534;2023-03-14T05:48:06;9.60;99.90
13944;DHT22;7044;53.286;8.534;2023-03-14T05:50:32;9.60;99.90
13944;DHT22;7044;53.286;8.534;2023-03-14T05:52:59;9.70;99.90
13944;DHT22;7044;53.286;8.534;2023-03-14T05:55:27;9.60;99.90
13944;DHT22;7044;53.286;8.534;2023-03-14T05:57:54;9.60;99.90
13944;DHT22;7044;53.286;8.534;2023-03-14T06:00:22;9.60;99.90
13944;DHT22;7044;53.286;8.534;2023-03-14T06:02:49;9.70;99.90
13944;DHT22;7044;53.286;8.534;2023-03-14T06:05:16;9.70;99.90
13944;DHT22;7044;53.286;8.534;2023-03-14T06:07:42;9.70;99.90
13944;DHT22;7044;53.286;8.534;2023-03-14T06:10:10;9.70;99.90
13944;DHT22;7044;53.286;8.534;2023-03-14T06:12:38;9.70;99.90
13944;DHT22;7044;53.286;8.534;2023-03-14T06:15:06;9.70;99.90
13944;DHT22;7044;53.286;8.534;2023-03-14T06:17:33;9.70;99.90
13944;DHT22;7044;53.286;8.534;2023-03-14T06:20:00;9.80;99.90
13944;DHT22;7044;53.286;8.534;2023-03-14T06:22:26;9.80;99.90
13944;DHT22;7044;53.286;8.534;2023-03-14T06:24:53;9.70;99.90
13944;DHT22;7044;53.286;8.534;2023-03-14T06:27:20;9.70;99.90
13944;DHT22;7044;53.286;8.534;2023-03-14T06:29:48;9.70;99.90
13944;DHT22;7044;53.286;8.534;2023-03-14T06:32:15;9.70;99.90
13944;DHT22;7044;53.286;8.534;2023-03-14T06:34:41;9.60;99.90
13944;DHT22;7044;53.286;8.534;2023-03-14T06:37:08;9.60;99.90
13944;DHT22;7044;53.286;8.534;2023-03-14T06:39:35;9.60;99.90
13944;DHT22;7044;53.286;8.534;2023-03-14T06:42:04;9.50;99.90
13944;DHT22;7044;53.286;8.534;2023-03-14T06:44:31;9.50;99.90
13944;DHT22;7044;53.286;8.534;2023-03-14T06:46:59;9.50;99.90
13944;DHT22;7044;53.286;8.534;2023-03-14T06:49:26;9.50;99.90
13944;DHT22;7044;53.286;8.534;2023-03-14T06:51:53;9.50;99.90
13944;DHT22;7044;53.286;8.534;2023-03-14T06:54:19;9.50;99.90
13944;DHT22;7044;53.286;8.534;2023-03-14T06:56:46;9.50;99.90
13944;DHT22;7044;53.286;8.534;2023-03-14T06:59:13;9.50;99.90
13944;DHT22;7044;53.286;8.534;2023-03-14T07:01:40;9.60;99.90
13944;DHT22;7044;53.286;8.534;2023-03-14T07:04:08;9.60;99.90
13944;DHT22;7044;53.286;8.534;2023-03-14T07:06:35;9.60;99.90
13944;DHT22;7044;53.286;8.534;2023-03-14T07:09:03;9.60;99.90
13944;DHT22;7044;53.286;8.534;2023-03-14T07:11:29;9.60;99.90
13944;DHT22;7044;53.286;8.534;2023-03-14T07:13:56;9.70;99.90
13944;DHT22;7044;53.286;8.534;2023-03-14T07:16:23;9.70;99.90
13944;DHT22;7044;53.286;8.534;2023-03-14T07:18:54;9.80;99.90
13944;DHT22;7044;53.286;8.534;2023-03-14T07:21:22;9.90;99.90
13944;DHT22;7044;53.286;8.534;2023-03-14T07:23:49;9.90;99.90
13944;DHT22;7044;53.286;8.534;2023-03-14T07:26:16;9.90;99.90
13944;DHT22;7044;53.286;8.534;2023-03-14T07:28:43;10.00;99.90
13944;DHT22;7044;53.286;8.534;2023-03-14T07:31:10;9.90;99.90
13944;DHT22;7044;53.286;8.534;2023-03-14T07:33:37;9.90;99.90
13944;DHT22;7044;53.286;8.534;2023-03-14T07:36:04;9.90;99.90
13944;DHT22;7044;53.286;8.534;2023-03-14T07:38:32;9.90;99.90
13944;DHT22;7044;53.286;8.534;2023-03-14T07:41:00;9.90;99.90
13944;DHT22;7044;53.286;8.534;2023-03-14T07:43:27;9.90;99.90
13944;DHT22;7044;53.286;8.534;2023-03-14T07:45:54;9.90;99.90
13944;DHT22;7044;53.286;8.534;2023-03-14T07:48:21;9.90;99.90
13944;DHT22;7044;53.286;8.534;2023-03-14T07:50:51;9.90;99.90
13944;DHT22;7044;53.286;8.534;2023-03-14T07:53:18;9.90;99.90
13944;DHT22;7044;53.286;8.534;2023-03-14T07:55:46;9.90;99.90
13944;DHT22;7044;53.286;8.534;2023-03-14T07:58:13;9.90;99.90
13944;DHT22;7044;53.286;8.534;2023-03-14T08:00:40;9.90;99.90
13944;DHT22;7044;53.286;8.534;2023-03-14T08:03:07;9.90;99.90
13944;DHT22;7044;53.286;8.534;2023-03-14T08:05:34;9.90;99.90
13944;DHT22;7044;53.286;8.534;2023-03-14T08:08:01;9.90;99.90
13944;DHT22;7044;53.286;8.534;2023-03-14T08:10:28;9.90;99.90
13944;DHT22;7044;53.286;8.534;2023-03-14T08:12:58;9.90;99.90
13944;DHT22;7044;53.286;8.534;2023-03-14T08:15:26;9.90;99.90
13944;DHT22;7044;53.286;8.534;2023-03-14T08:17:53;9.80;99.90
13944;DHT22;7044;53.286;8.534;2023-03-14T08:20:22;9.90;99.90
13944;DHT22;7044;53.286;8.534;2023-03-14T08:22:49;9.80;99.90
13944;DHT22;7044;53.286;8.534;2023-03-14T08:25:16;9.80;99.90
13944;DHT22;7044;53.286;8.534;2023-03-14T08:27:43;9.90;99.90
13944;DHT22;7044;53.286;8.534;2023-03-14T08:30:14;9.90;99.90
13944;DHT22;7044;53.286;8.534;2023-03-14T08:32:40;9.90;99.90
13944;DHT22;7044;53.286;8.534;2023-03-14T08:35:08;9.80;99.90
13944;DHT22;7044;53.286;8.534;2023-03-14T08:37:35;9.80;99.90
13944;DHT22;7044;53.286;8.534;2023-03-14T08:40:03;8.90;93.70
13944;DHT22;7044;53.286;8.534;2023-03-14T08:42:32;7.60;97.30
13944;DHT22;7044;53.286;8.534;2023-03-14T08:44:59;6.60;99.90
13944;DHT22;7044;53.286;8.534;2023-03-14T08:47:27;6.20;99.90
13944;DHT22;7044;53.286;8.534;2023-03-14T08:49:54;5.90;99.90
13944;DHT22;7044;53.286;8.534;2023-03-14T08:52:21;5.80;99.90
13944;DHT22;7044;53.286;8.534;2023-03-14T08:54:48;5.70;99.90
13944;DHT22;7044;53.286;8.534;2023-03-14T08:57:15;5.50;99.90
13944;DHT22;7044;53.286;8.534;2023-03-14T08:59:42;5.50;99.90
13944;DHT22;7044;53.286;8.534;2023-03-14T09:02:09;5.40;99.90
13944;DHT22;7044;53.286;8.534;2023-03-14T09:04:38;5.40;99.90
13944;DHT22;7044;53.286;8.534;2023-03-14T09:07:05;5.30;99.90
13944;DHT22;7044;53.286;8.534;2023-03-14T09:09:32;5.10;99.90
13944;DHT22;7044;53.286;8.534;2023-03-14T09:11:59;5.00;99.90
13944;DHT22;7044;53.286;8.534;2023-03-14T09:14:26;4.90;99.90
13944;DHT22;7044;53.286;8.534;2023-03-14T09:16:52;4.60;99.90
13944;DHT22;7044;53.286;8.534;2023-03-14T09:19:19;4.40;99.90
13944;DHT22;7044;53.286;8.534;2023-03-14T09:21:48;4.30;99.90
13944;DHT22;7044;53.286;8.534;2023-03-14T09:24:14;4.00;99.90
13944;DHT22;7044;53.286;8.534;2023-03-14T09:26:41;3.90;99.90
13944;DHT22;7044;53.286;8.534;2023-03-14T09:29:08;3.90;99.90
13944;DHT22;7044;53.286;8.534;2023-03-14T09:31:35;3.70;99.90
13944;DHT22;7044;53.286;8.534;2023-03-14T09:34:02;3.70;99.90
13944;DHT22;7044;53.286;8.534;2023-03-14T09:36:29;3.70;99.90
13944;DHT22;7044;53.286;8.534;2023-03-14T09:38:57;3.60;99.90
13944;DHT22;7044;53.286;8.534;2023-03-14T09:41:26;3.60;99.90
13944;DHT22;7044;53.286;8.534;2023-03-14T09:44:04;3.70;99.90
13944;DHT22;7044;53.286;8.534;2023-03-14T09:46:33;3.70;99.90
13944;DHT22;7044;53.286;8.534;2023-03-14T09:49:02;3.70;99.90
13944;DHT22;7044;53.286;8.534;2023-03-14T09:51:29;3.70;99.90
13944;DHT22;7044;53.286;8.534;2023-03-14T09:53:58;3.80;99.90
13944;DHT22;7044;53.286;8.534;2023-03-14T09:56:29;3.90;99.90
13944;DHT22;7044;53.286;8.534;2023-03-14T09:59:00;4.00;99.90
13944;DHT22;7044;53.286;8.534;2023-03-14T10:01:29;4.20;99.90
13944;DHT22;7044;53.286;8.534;2023-03-14T10:03:58;4.10;99.90
13944;DHT22;7044;53.286;8.534;2023-03-14T10:06:27;4.10;99.90
13944;DHT22;7044;53.286;8.534;2023-03-14T10:08:54;4.10;99.90
13944;DHT22;7044;53.286;8.534;2023-03-14T10:11:24;4.10;99.90
13944;DHT22;7044;53.286;8.534;2023-03-14T10:14:03;4.10;99.90
13944;DHT22;7044;53.286;8.534;2023-03-14T10:16:32;4.10;99.90
13944;DHT22;7044;53.286;8.534;2023-03-14T10:19:04;4.20;99.90
13944;DHT22;7044;53.286;8.534;2023-03-14T10:21:35;4.40;99.90
13944;DHT22;7044;53.286;8.534;2023-03-14T10:24:16;4.30;99.90
13944;DHT22;7044;53.286;8.534;2023-03-14T10:26:48;4.40;99.90
13944;DHT22;7044;53.286;8.534;2023-03-14T10:29:15;4.30;99.90
13944;DHT22;7044;53.286;8.534;2023-03-14T10:31:51;4.40;99.90
13944;DHT22;7044;53.286;8.534;2023-03-14T10:34:22;4.40;99.90
13944;DHT22;7044;53.286;8.534;2023-03-14T10:36:53;4.40;99.90
13944;DHT22;7044;53.286;8.534;2023-03-14T10:39:30;4.40;99.90
13944;DHT22;7044;53.286;8.534;2023-03-14T10:42:06;4.50;99.90
13944;DHT22;7044;53.286;8.534;2023-03-14T10:44:39;4.60;99.90
13944;DHT22;7044;53.286;8.534;2023-03-14T10:47:06;4.60;99.90
13944;DHT22;7044;53.286;8.534;2023-03-14T10:49:34;4.60;99.90
13944;DHT22;7044;53.286;8.534;2023-03-14T10:52:12;4.60;99.90
13944;DHT22;7044;53.286;8.534;2023-03-14T10:54:39;4.70;99.90
13944;DHT22;7044;53.286;8.534;2023-03-14T10:57:08;4.70;99.90
13944;DHT22;7044;53.286;8.534;2023-03-14T10:59:36;4.80;99.60
13944;DHT22;7044;53.286;8.534;2023-03-14T11:02:15;4.80;98.60
13944;DHT22;7044;53.286;8.534;2023-03-14T11:04:57;4.90;98.20
13944;DHT22;7044;53.286;8.534;2023-03-14T11:07:33;4.90;94.70
13944;DHT22;7044;53.286;8.534;2023-03-14T11:10:09;5.00;95.90
13944;DHT22;7044;53.286;8.534;2023-03-14T11:12:45;5.00;96.40
13944;DHT22;7044;53.286;8.534;2023-03-14T11:15:19;5.10;97.90
13944;DHT22;7044;53.286;8.534;2023-03-14T11:17:57;5.20;98.50
13944;DHT22;7044;53.286;8.534;2023-03-14T11:20:33;5.30;95.60
13944;DHT22;7044;53.286;8.534;2023-03-14T11:23:08;5.40;98.10
13944;DHT22;7044;53.286;8.534;2023-03-14T11:25:43;5.30;95.20
13944;DHT22;7044;53.286;8.534;2023-03-14T11:28:18;5.30;96.30
13944;DHT22;7044;53.286;8.534;2023-03-14T11:30:51;5.20;96.30
13944;DHT22;7044;53.286;8.534;2023-03-14T11:33:21;4.90;99.90
13944;DHT22;7044;53.286;8.534;2023-03-14T11:35:53;5.00;99.90
13944;DHT22;7044;53.286;8.534;2023-03-14T11:38:29;5.10;99.90
13944;DHT22;7044;53.286;8.534;2023-03-14T11:40:57;5.20;99.90
13944;DHT22;7044;53.286;8.534;2023-03-14T11:43:29;5.40;97.50
13944;DHT22;7044;53.286;8.534;2023-03-14T11:46:01;5.50;97.90
13944;DHT22;7044;53.286;8.534;2023-03-14T11:48:36;5.50;94.80
13944;DHT22;7044;53.286;8.534;2023-03-14T11:51:09;5.60;90.00
13944;DHT22;7044;53.286;8.534;2023-03-14T11:53:45;5.60;90.80
13944;DHT22;7044;53.286;8.534;2023-03-14T11:56:22;5.60;41.90
13944;DHT22;7044;53.286;8.534;2023-03-14T11:58:57;5.70;43.70
13944;DHT22;7044;53.286;8.534;2023-03-14T12:01:33;5.70;18.70
13944;DHT22;7044;53.286;8.534;2023-03-14T12:04:05;5.70;12.40
13944;DHT22;7044;53.286;8.534;2023-03-14T12:06:42;5.60;1.00
13944;DHT22;7044;53.286;8.534;2023-03-14T12:09:12;5.70;1.00
13944;DHT22;7044;53.286;8.534;2023-03-14T12:11:43;5.70;1.00
13944;DHT22;7044;53.286;8.534;2023-03-14T12:14:21;5.70;1.00
13944;DHT22;7044;53.286;8.534;2023-03-14T12:16:50;5.70;1.00
13944;DHT22;7044;53.286;8.534;2023-03-14T12:19:28;5.70;1.00
13944;DHT22;7044;53.286;8.534;2023-03-14T12:22:01;5.80;1.00
13944;DHT22;7044;53.286;8.534;2023-03-14T12:24:30;5.90;1.00
13944;DHT22;7044;53.286;8.534;2023-03-14T12:27:01;5.90;1.00
13944;DHT22;7044;53.286;8.534;2023-03-14T12:29:29;5.90;1.00
13944;DHT22;7044;53.286;8.534;2023-03-14T12:32:09;5.90;99.90
13944;DHT22;7044;53.286;8.534;2023-03-14T12:34:39;5.90;99.90
13944;DHT22;7044;53.286;8.534;2023-03-14T12:37:26;5.90;99.90
13944;DHT22;7044;53.286;8.534;2023-03-14T12:40:03;6.00;99.90
13944;DHT22;7044;53.286;8.534;2023-03-14T12:42:41;6.10;99.90
13944;DHT22;7044;53.286;8.534;2023-03-14T12:45:24;6.00;99.90
13944;DHT22;7044;53.286;8.534;2023-03-14T12:48:17;5.90;99.90
13944;DHT22;7044;53.286;8.534;2023-03-14T12:50:47;5.90;99.90
13944;DHT22;7044;53.286;8.534;2023-03-14T12:53:57;5.90;99.90
13944;DHT22;7044;53.286;8.534;2023-03-14T12:56:43;5.90;99.90
13944;DHT22;7044;53.286;8.534;2023-03-14T12:59:29;5.90;99.90
13944;DHT22;7044;53.286;8.534;2023-03-14T13:02:01;5.90;99.90
13944;DHT22;7044;53.286;8.534;2023-03-14T13:04:32;5.90;99.90
13944;DHT22;7044;53.286;8.534;2023-03-14T13:07:00;5.90;99.90
13944;DHT22;7044;53.286;8.534;2023-03-14T13:09:52;5.90;99.90
13944;DHT22;7044;53.286;8.534;2023-03-14T13:12:25;5.90;99.90
13944;DHT22;7044;53.286;8.534;2023-03-14T13:14:58;5.90;99.90
13944;DHT22;7044;53.286;8.534;2023-03-14T13:17:29;5.80;99.90
13944;DHT22;7044;53.286;8.534;2023-03-14T13:19:59;5.70;99.90
13944;DHT22;7044;53.286;8.534;2023-03-14T13:22:28;5.80;99.90
13944;DHT22;7044;53.286;8.534;2023-03-14T13:25:00;5.80;99.90
13944;DHT22;7044;53.286;8.534;2023-03-14T13:27:30;5.80;99.90
13944;DHT22;7044;53.286;8.534;2023-03-14T13:29:58;6.00;99.90
13944;DHT22;7044;53.286;8.534;2023-03-14T13:32:28;6.10;99.90
13944;DHT22;7044;53.286;8.534;2023-03-14T13:34:56;6.10;99.90
13944;DHT22;7044;53.286;8.534;2023-03-14T13:37:24;6.20;99.90
13944;DHT22;7044;53.286;8.534;2023-03-14T13:39:52;6.20;99.90
13944;DHT22;7044;53.286;8.534;2023-03-14T13:42:21;6.30;99.90
13944;DHT22;7044;53.286;8.534;2023-03-14T13:44:51;6.30;99.90
13944;DHT22;7044;53.286;8.534;2023-03-14T13:47:21;6.20;99.90
13944;DHT22;7044;53.286;8.534;2023-03-14T13:49:51;6.30;99.90
13944;DHT22;7044;53.286;8.534;2023-03-14T13:52:23;6.10;99.90
13944;DHT22;7044;53.286;8.534;2023-03-14T13:54:53;6.00;99.90
13944;DHT22;7044;53.286;8.534;2023-03-14T13:57:20;5.90;99.90
13944;DHT22;7044;53.286;8.534;2023-03-14T13:59:58;5.80;99.90
13944;DHT22;7044;53.286;8.534;2023-03-14T14:02:26;5.70;99.90
13944;DHT22;7044;53.286;8.534;2023-03-14T14:04:56;5.60;99.90
13944;DHT22;7044;53.286;8.534;2023-03-14T14:07:23;5.60;99.90
13944;DHT22;7044;53.286;8.534;2023-03-14T14:09:52;5.50;99.90
13944;DHT22;7044;53.286;8.534;2023-03-14T14:12:23;5.60;99.90
13944;DHT22;7044;53.286;8.534;2023-03-14T14:14:55;5.80;99.90
13944;DHT22;7044;53.286;8.534;2023-03-14T14:17:26;5.90;99.90
13944;DHT22;7044;53.286;8.534;2023-03-14T14:19:56;6.00;99.90
13944;DHT22;7044;53.286;8.534;2023-03-14T14:22:23;6.10;99.90
13944;DHT22;7044;53.286;8.534;2023-03-14T14:24:51;6.10;99.90
13944;DHT22;7044;53.286;8.534;2023-03-14T14:27:24;6.10;99.90
13944;DHT22;7044;53.286;8.534;2023-03-14T14:29:59;6.10;99.90
13944;DHT22;7044;53.286;8.534;2023-03-14T14:32:34;6.00;99.90
13944;DHT22;7044;53.286;8.534;2023-03-14T14:35:03;6.00;99.90
13944;DHT22;7044;53.286;8.534;2023-03-14T14:37:32;6.00;99.90
13944;DHT22;7044;53.286;8.534;2023-03-14T14:40:01;5.90;99.90
13944;DHT22;7044;53.286;8.534;2023-03-14T14:42:33;5.90;99.90
13944;DHT22;7044;53.286;8.534;2023-03-14T14:45:03;5.90;99.90
13944;DHT22;7044;53.286;8.534;2023-03-14T14:47:30;5.90;99.90
13944;DHT22;7044;53.286;8.534;2023-03-14T14:50:00;6.00;99.90
13944;DHT22;7044;53.286;8.534;2023-03-14T14:52:37;5.90;99.90
13944;DHT22;7044;53.286;8.534;2023-03-14T14:55:13;6.00;99.90
13944;DHT22;7044;53.286;8.534;2023-03-14T14:57:51;6.00;99.90
13944;DHT22;7044;53.286;8.534;2023-03-14T15:00:20;6.10;99.90
13944;DHT22;7044;53.286;8.534;2023-03-14T15:02:48;6.00;99.90
13944;DHT22;7044;53.286;8.534;2023-03-14T15:05:19;5.90;99.90
13944;DHT22;7044;53.286;8.534;2023-03-14T15:07:47;5.70;99.90
13944;DHT22;7044;53.286;8.534;2023-03-14T15:10:16;5.70;99.90
13944;DHT22;7044;53.286;8.534;2023-03-14T15:12:43;5.70;99.90
13944;DHT22;7044;53.286;8.534;2023-03-14T15:15:11;5.60;99.90
13944;DHT22;7044;53.286;8.534;2023-03-14T15:17:38;5.70;99.90
13944;DHT22;7044;53.286;8.534;2023-03-14T15:20:09;5.70;99.90
13944;DHT22;7044;53.286;8.534;2023-03-14T15:22:38;5.70;99.90
13944;DHT22;7044;53.286;8.534;2023-03-14T15:25:07;5.80;99.90
13944;DHT22;7044;53.286;8.534;2023-03-14T15:27:35;5.80;99.90
13944;DHT22;7044;53.286;8.534;2023-03-14T15:30:10;5.80;99.90
13944;DHT22;7044;53.286;8.534;2023-03-14T15:32:37;5.90;99.90
13944;DHT22;7044;53.286;8.534;2023-03-14T15:35:04;5.90;99.90
13944;DHT22;7044;53.286;8.534;2023-03-14T15:37:31;5.90;99.90
13944;DHT22;7044;53.286;8.534;2023-03-14T15:39:58;6.00;99.90
13944;DHT22;7044;53.286;8.534;2023-03-14T15:42:26;6.00;99.90
13944;DHT22;7044;53.286;8.534;2023-03-14T15:44:53;6.00;99.90
13944;DHT22;7044;53.286;8.534;2023-03-14T15:47:19;6.00;99.90
13944;DHT22;7044;53.286;8.534;2023-03-14T15:49:46;4.30;99.90
13944;DHT22;7044;53.286;8.534;2023-03-14T15:52:13;5.80;99.90
13944;DHT22;7044;53.286;8.534;2023-03-14T15:54:40;5.70;99.90
13944;DHT22;7044;53.286;8.534;2023-03-14T15:57:10;5.70;99.90
13944;DHT22;7044;53.286;8.534;2023-03-14T15:59:38;5.60;99.90
13944;DHT22;7044;53.286;8.534;2023-03-14T16:02:05;5.50;99.90
13944;DHT22;7044;53.286;8.534;2023-03-14T16:04:32;5.60;99.90
13944;DHT22;7044;53.286;8.534;2023-03-14T16:06:58;5.50;99.90
13944;DHT22;7044;53.286;8.534;2023-03-14T16:09:25;5.50;99.90
13944;DHT22;7044;53.286;8.534;2023-03-14T16:11:53;5.50;99.90
13944;DHT22;7044;53.286;8.534;2023-03-14T16:14:20;5.50;99.90